Time;durP1;ratioP1;P1;durP2;ratioP2;P2;SDS_P1;SDS_P2;PMS_P1;PMS_P2;Temp;Humidity;BMP_temperature;BMP_pressure;BME280_temperature;BME280_humidity;BME280_pressure;Samples;Min_cycle;Max_cycle;Signal;HPM_P1;HPM_P2
2023/10/28 00:00:19;;;;;;;0.50;0.40;;;;;;;19.56;100.00;94525.56;5133119;27;20774;-65
2023/10/28 00:02:47;;;;;;;0.80;0.63;;;;;;;19.48;100.00;94521.91;5124672;27;20496;-65
2023/10/28 00:05:16;;;;;;;0.50;0.47;;;;;;;19.35;100.00;94495.41;5128908;27;20435;-64
2023/10/28 00:07:44;;;;;;;0.60;0.30;;;;;;;19.43;100.00;94516.00;5133494;27;20514;-65
2023/10/28 00:10:13;;;;;;;0.40;0.20;;;;;;;19.05;100.00;94521.81;5133395;27;20430;-65
2023/10/28 00:12:41;;;;;;;0.40;0.30;;;;;;;19.07;100.00;94505.38;5134176;27;20542;-65
2023/10/28 00:15:10;;;;;;;0.50;0.30;;;;;;;19.16;100.00;94514.06;5133141;27;20483;-65
2023/10/28 00:17:40;;;;;;;0.40;0.30;;;;;;;19.25;100.00;94520.09;5133586;27;20434;-64
2023/10/28 00:20:08;;;;;;;0.63;0.40;;;;;;;19.08;100.00;94513.09;5132781;27;20495;-64
2023/10/28 00:22:37;;;;;;;1.00;0.97;;;;;;;19.27;100.00;94504.41;5132368;27;20491;-64
2023/10/28 00:25:06;;;;;;;2.53;2.43;;;;;;;19.36;100.00;94521.16;5133318;27;20510;-64
2023/10/28 00:27:35;;;;;;;0.60;0.53;;;;;;;19.31;100.00;94516.03;5131154;27;20478;-63
2023/10/28 00:30:07;;;;;;;1.30;0.50;;;;;;;19.16;100.00;94514.84;5106628;27;20438;-64
2023/10/28 00:32:36;;;;;;;1.37;0.70;;;;;;;19.11;100.00;94527.75;5132640;27;20469;-64
2023/10/28 00:35:08;;;;;;;0.60;0.40;;;;;;;18.70;100.00;94497.44;5131912;27;20438;-64
2023/10/28 00:37:36;;;;;;;0.40;0.30;;;;;;;18.46;100.00;94516.25;5131446;27;20847;-64
2023/10/28 00:40:06;;;;;;;0.50;0.30;;;;;;;18.67;100.00;94533.00;5132768;27;20430;-64
2023/10/28 00:42:35;;;;;;;0.40;0.20;;;;;;;18.99;100.00;94534.75;5132310;27;20530;-65
2023/10/28 00:45:05;;;;;;;0.40;0.20;;;;;;;18.90;100.00;94531.38;5132824;27;20478;-65
2023/10/28 00:47:33;;;;;;;0.40;0.30;;;;;;;19.05;100.00;94524.50;5132723;27;20491;-65
2023/10/28 00:50:05;;;;;;;0.57;0.40;;;;;;;18.83;100.00;94525.81;5132382;27;20514;-64
2023/10/28 00:52:35;;;;;;;0.40;0.20;;;;;;;18.90;100.00;94527.91;5132434;28;20430;-64
2023/10/28 00:55:04;;;;;;;0.50;0.30;;;;;;;19.11;100.00;94531.22;5132813;28;20491;-64
2023/10/28 00:57:33;;;;;;;0.43;0.30;;;;;;;18.93;100.00;94505.75;5126528;28;20522;-64
2023/10/28 01:00:02;;;;;;;0.43;0.33;;;;;;;19.05;100.00;94534.50;5125922;28;20441;-62
2023/10/28 01:02:31;;;;;;;0.70;0.30;;;;;;;18.83;100.00;94541.16;5132981;28;20503;-64
2023/10/28 01:05:00;;;;;;;0.50;0.30;;;;;;;18.60;100.00;94535.50;5132213;28;20974;-63
2023/10/28 01:07:29;;;;;;;0.40;0.30;;;;;;;18.77;100.00;94535.22;5132670;28;20441;-64
2023/10/28 01:10:00;;;;;;;0.40;0.20;;;;;;;18.17;100.00;94466.31;5131522;28;20435;-63
2023/10/28 01:12:28;;;;;;;0.40;0.30;;;;;;;18.54;100.00;94531.50;5131990;28;21018;-64
2023/10/28 01:14:57;;;;;;;0.40;0.20;;;;;;;18.46;100.00;94520.84;5132020;28;20502;-64
2023/10/28 01:17:26;;;;;;;0.40;0.30;;;;;;;18.49;100.00;94526.34;5132202;28;20437;-64
2023/10/28 01:19:56;;;;;;;0.40;0.30;;;;;;;18.74;100.00;94527.88;5132465;28;20489;-64
2023/10/28 01:22:26;;;;;;;0.50;0.40;;;;;;;18.79;100.00;94535.69;5121877;28;20431;-64
2023/10/28 01:24:55;;;;;;;0.40;0.30;;;;;;;18.80;100.00;94536.44;5129352;28;20525;-64
2023/10/28 01:27:23;;;;;;;0.50;0.40;;;;;;;18.90;100.00;94544.03;5132072;28;20462;-64
2023/10/28 01:29:52;;;;;;;0.50;0.30;;;;;;;18.60;100.00;94529.34;5132611;28;20541;-64
2023/10/28 01:32:20;;;;;;;0.40;0.20;;;;;;;18.59;100.00;94533.16;5131967;28;20495;-64
2023/10/28 01:34:50;;;;;;;0.40;0.30;;;;;;;18.55;100.00;94533.03;5131862;28;20529;-65
2023/10/28 01:37:19;;;;;;;0.40;0.20;;;;;;;18.70;100.00;94523.50;5131954;28;20462;-65
2023/10/28 01:39:50;;;;;;;0.40;0.30;;;;;;;18.65;100.00;94515.69;5132753;28;20439;-65
2023/10/28 01:42:19;;;;;;;0.40;0.20;;;;;;;18.72;100.00;94535.47;5131678;28;20438;-64
2023/10/28 01:44:48;;;;;;;0.40;0.20;;;;;;;18.55;100.00;94533.03;5132251;28;20445;-65
2023/10/28 01:47:16;;;;;;;0.60;0.37;;;;;;;18.32;100.00;94529.22;5133092;27;20492;-65
2023/10/28 01:49:45;;;;;;;0.60;0.60;;;;;;;17.70;100.00;94489.34;5136168;27;20517;-66
2023/10/28 01:52:15;;;;;;;0.40;0.30;;;;;;;18.19;100.00;94530.38;5136054;27;20582;-66
2023/10/28 01:54:43;;;;;;;2.27;0.60;;;;;;;18.19;100.00;94541.09;5135845;27;20473;-66
2023/10/28 01:57:13;;;;;;;0.73;0.33;;;;;;;18.36;100.00;94538.19;5135347;27;20875;-66
2023/10/28 01:59:43;;;;;;;0.40;0.20;;;;;;;18.00;100.00;94495.28;5136124;27;20549;-67
2023/10/28 02:02:12;;;;;;;0.40;0.30;;;;;;;18.23;100.00;94529.34;5134945;27;20441;-64
2023/10/28 02:04:40;;;;;;;0.50;0.30;;;;;;;18.24;100.00;94522.09;5135576;27;20431;-67
2023/10/28 02:07:09;;;;;;;0.50;0.40;;;;;;;17.73;100.00;94553.75;5135323;27;20441;-66
2023/10/28 02:09:37;;;;;;;6.93;0.50;;;;;;;17.65;100.00;94554.66;5135758;27;20495;-64
2023/10/28 02:12:06;;;;;;;5.10;0.63;;;;;;;17.87;100.00;94539.25;5134990;27;20435;-65
2023/10/28 02:14:36;;;;;;;0.53;0.50;;;;;;;17.98;100.00;94548.44;5135321;27;20572;-66
2023/10/28 02:17:05;;;;;;;0.40;0.20;;;;;;;17.92;100.00;94552.44;5135803;27;20430;-65
2023/10/28 02:19:33;;;;;;;0.60;0.50;;;;;;;17.68;100.00;94553.22;5142841;27;20430;-63
2023/10/28 02:22:02;;;;;;;0.40;0.30;;;;;;;17.82;100.00;94547.53;5136840;27;20876;-65
2023/10/28 02:24:41;;;;;;;0.50;0.40;;;;;;;18.00;100.00;94551.56;5135485;27;21050;-64
2023/10/28 02:27:10;;;;;;;0.50;0.30;;;;;;;17.44;100.00;94553.09;5135292;27;20560;-65
2023/10/28 02:29:40;;;;;;;0.50;0.40;;;;;;;17.56;100.00;94545.13;5134610;27;20518;-65
2023/10/28 02:32:10;;;;;;;0.50;0.30;;;;;;;17.76;100.00;94544.28;5135143;27;20438;-65
2023/10/28 02:34:41;;;;;;;0.80;0.50;;;;;;;17.68;100.00;94548.63;5134974;27;20470;-65
2023/10/28 02:37:10;;;;;;;2.43;0.33;;;;;;;17.22;100.00;94545.44;5135550;27;20829;-65
2023/10/28 02:39:39;;;;;;;0.73;0.67;;;;;;;17.34;100.00;94548.16;5134435;27;20423;-65
2023/10/28 02:42:07;;;;;;;0.50;0.30;;;;;;;17.03;100.00;94482.44;5135341;27;20430;-65
2023/10/28 02:44:36;;;;;;;0.50;0.30;;;;;;;17.66;100.00;94552.75;5134407;27;20434;-65
2023/10/28 02:47:07;;;;;;;0.40;0.30;;;;;;;17.30;100.00;94547.25;5133947;27;20435;-64
2023/10/28 02:49:37;;;;;;;0.50;0.30;;;;;;;17.64;100.00;94555.75;5134816;27;20503;-65
2023/10/28 02:52:06;;;;;;;0.50;0.33;;;;;;;17.80;100.00;94555.91;5134134;27;20457;-65
2023/10/28 02:54:36;;;;;;;0.50;0.40;;;;;;;17.73;100.00;94545.72;5134570;27;21079;-65
2023/10/28 02:57:04;;;;;;;0.60;0.47;;;;;;;17.53;100.00;94514.41;5134503;27;20869;-65
2023/10/28 02:59:33;;;;;;;0.40;0.20;;;;;;;17.51;100.00;94518.50;5129073;27;20501;-65
2023/10/28 03:02:01;;;;;;;0.50;0.50;;;;;;;17.52;100.00;94569.13;5130931;27;20446;-64
2023/10/28 03:04:31;;;;;;;0.50;0.50;;;;;;;17.64;100.00;94571.84;5134529;27;20438;-65
2023/10/28 03:06:59;;;;;;;0.40;0.20;;;;;;;17.62;100.00;94565.25;5134254;27;20431;-65
2023/10/28 03:09:30;;;;;;;0.47;0.40;;;;;;;17.58;100.00;94549.03;5134154;27;20521;-65
2023/10/28 03:11:58;;;;;;;0.50;0.30;;;;;;;17.64;100.00;94558.44;5134585;27;20437;-65
2023/10/28 03:14:27;;;;;;;0.57;0.30;;;;;;;17.69;100.00;94565.47;5133983;27;20462;-65
2023/10/28 03:16:55;;;;;;;0.40;0.30;;;;;;;16.95;100.00;94485.22;5134344;27;20431;-66
2023/10/28 03:19:23;;;;;;;0.40;0.30;;;;;;;17.22;100.00;94572.22;5134143;27;20939;-66
2023/10/28 03:21:53;;;;;;;0.50;0.40;;;;;;;16.65;100.00;94575.47;5132925;27;20434;-66
2023/10/28 03:24:23;;;;;;;0.60;0.47;;;;;;;16.77;100.00;94575.56;5134179;27;20451;-66
2023/10/28 03:26:51;;;;;;;1.27;1.17;;;;;;;16.66;100.00;94568.25;5133755;27;20462;-64
2023/10/28 03:29:20;;;;;;;0.77;0.33;;;;;;;16.85;100.00;94579.31;5133908;27;20434;-65
2023/10/28 03:31:48;;;;;;;0.50;0.30;;;;;;;17.17;100.00;94578.56;5133274;27;20469;-65
2023/10/28 03:34:17;;;;;;;0.50;0.30;;;;;;;17.25;100.00;94569.69;5133258;27;20515;-65
2023/10/28 03:36:46;;;;;;;0.40;0.20;;;;;;;17.22;100.00;94589.06;5133163;27;20461;-65
2023/10/28 03:39:17;;;;;;;0.60;0.30;;;;;;;16.99;100.00;94590.53;5133460;27;20469;-64
2023/10/28 03:41:45;;;;;;;0.40;0.40;;;;;;;17.08;100.00;94593.91;5133390;27;20491;-65
2023/10/28 03:44:14;;;;;;;0.40;0.23;;;;;;;17.21;100.00;94598.22;5133501;27;20515;-64
2023/10/28 03:46:42;;;;;;;0.50;0.40;;;;;;;17.07;100.00;94597.72;5133650;27;20521;-65
2023/10/28 03:49:10;;;;;;;0.60;0.40;;;;;;;17.09;100.00;94587.44;5132706;27;20491;-65
2023/10/28 03:51:40;;;;;;;0.40;0.30;;;;;;;17.15;100.00;94589.59;5133513;27;20958;-65
2023/10/28 03:54:08;;;;;;;1.43;0.30;;;;;;;17.22;100.00;94594.44;5133400;27;20491;-65
2023/10/28 03:56:38;;;;;;;0.43;0.30;;;;;;;17.18;100.00;94595.41;5133151;27;20434;-65
2023/10/28 03:59:06;;;;;;;0.63;0.40;;;;;;;16.82;100.00;94607.50;5131939;27;20864;-65
2023/10/28 04:01:35;;;;;;;1.13;0.50;;;;;;;16.39;100.00;94605.00;5133286;27;20545;-66
2023/10/28 04:04:04;;;;;;;0.50;0.40;;;;;;;16.59;100.00;94597.41;5133282;27;20437;-64
2023/10/28 04:06:32;;;;;;;4.40;1.17;;;;;;;16.81;100.00;94599.78;5132534;27;20497;-63
2023/10/28 04:09:01;;;;;;;0.40;0.30;;;;;;;16.74;100.00;94588.81;5133495;27;20434;-64
2023/10/28 04:11:29;;;;;;;0.50;0.40;;;;;;;16.42;100.00;94609.72;5132906;27;20441;-63
2023/10/28 04:13:59;;;;;;;0.60;0.40;;;;;;;16.64;100.00;94594.53;5133322;27;20466;-64
2023/10/28 04:16:27;;;;;;;0.40;0.30;;;;;;;16.78;100.00;94605.78;5133214;27;20532;-64
2023/10/28 04:18:56;;;;;;;0.40;0.30;;;;;;;16.60;100.00;94601.63;5132988;27;20439;-64
2023/10/28 04:21:24;;;;;;;2.10;0.30;;;;;;;16.74;100.00;94600.31;5133133;27;20439;-64
2023/10/28 04:23:52;;;;;;;0.50;0.43;;;;;;;16.71;100.00;94606.28;5132854;27;20818;-64
2023/10/28 04:26:21;;;;;;;0.40;0.30;;;;;;;16.73;100.00;94614.00;5133525;27;20480;-64
2023/10/28 04:28:49;;;;;;;1.83;0.30;;;;;;;16.69;100.00;94610.41;5133181;27;20475;-62
2023/10/28 04:31:19;;;;;;;0.70;0.50;;;;;;;16.83;100.00;94614.41;5132707;27;20430;-63
2023/10/28 04:33:47;;;;;;;0.50;0.50;;;;;;;16.73;100.00;94617.44;5132503;27;20830;-63
2023/10/28 04:36:15;;;;;;;0.93;0.60;;;;;;;16.77;100.00;94622.94;5132431;27;20511;-63
2023/10/28 04:38:43;;;;;;;0.50;0.30;;;;;;;16.73;100.00;94617.44;5132691;27;20941;-63
2023/10/28 04:41:12;;;;;;;0.63;0.40;;;;;;;16.64;100.00;94630.09;5132596;27;20442;-63
2023/10/28 04:43:40;;;;;;;0.57;0.40;;;;;;;16.72;100.00;94617.78;5132635;27;20932;-63
2023/10/28 04:46:09;;;;;;;0.80;0.80;;;;;;;16.69;100.00;94626.47;5132155;27;20450;-65
2023/10/28 04:48:42;;;;;;;0.80;0.60;;;;;;;16.60;100.00;94636.41;5132165;27;20442;-62
2023/10/28 04:51:10;;;;;;;1.00;0.80;;;;;;;16.55;100.00;94644.63;5132864;27;20503;-62
2023/10/28 04:53:39;;;;;;;12.20;1.00;;;;;;;16.39;100.00;94653.16;5132102;28;20438;-63
2023/10/28 04:56:08;;;;;;;3.33;0.60;;;;;;;15.44;100.00;94589.59;5132133;28;20669;-63
2023/10/28 04:58:38;;;;;;;0.50;0.30;;;;;;;16.10;100.00;94623.72;5131832;28;20457;-64
2023/10/28 05:01:06;;;;;;;0.40;0.30;;;;;;;16.43;100.00;94646.06;5131662;28;20480;-64
2023/10/28 05:03:35;;;;;;;0.63;0.30;;;;;;;16.33;100.00;94659.81;5132272;28;20434;-64
2023/10/28 05:06:05;;;;;;;0.40;0.20;;;;;;;16.39;100.00;94652.38;5132408;28;20431;-64
2023/10/28 05:08:34;;;;;;;0.47;0.30;;;;;;;16.51;100.00;94661.31;5131788;28;20431;-63
2023/10/28 05:11:03;;;;;;;0.40;0.30;;;;;;;16.12;100.00;94674.97;5132072;28;20442;-64
2023/10/28 05:13:31;;;;;;;0.80;0.80;;;;;;;16.10;100.00;94663.03;5132578;28;20427;-65
2023/10/28 05:16:00;;;;;;;0.50;0.30;;;;;;;16.32;100.00;94650.19;5132429;28;20481;-64
2023/10/28 05:18:28;;;;;;;0.50;0.30;;;;;;;16.42;100.00;94683.81;5132073;28;20518;-64
2023/10/28 05:20:56;;;;;;;0.47;0.30;;;;;;;16.52;100.00;94680.81;5131832;28;20434;-64
2023/10/28 05:23:26;;;;;;;0.60;0.40;;;;;;;16.74;100.00;94688.59;5134491;27;21023;-64
2023/10/28 05:25:55;;;;;;;0.40;0.30;;;;;;;16.70;100.00;94668.94;5135750;27;20448;-63
2023/10/28 05:28:23;;;;;;;0.40;0.30;;;;;;;16.92;100.00;94695.44;5135887;27;21042;-63
2023/10/28 05:30:51;;;;;;;0.50;0.50;;;;;;;16.64;100.00;94690.84;5136129;27;20438;-63
2023/10/28 05:33:20;;;;;;;0.53;0.40;;;;;;;16.43;100.00;94704.91;5109380;27;20434;-62
2023/10/28 05:35:49;;;;;;;0.40;0.33;;;;;;;16.76;100.00;94693.63;5134935;27;20511;-62
2023/10/28 05:38:20;;;;;;;0.53;0.43;;;;;;;16.96;100.00;94699.03;5135805;27;20519;-63
2023/10/28 05:40:50;;;;;;;1.07;1.07;;;;;;;16.59;100.00;94709.75;5135377;27;20483;-62
2023/10/28 05:43:18;;;;;;;0.50;0.40;;;;;;;16.98;100.00;94709.41;5135405;27;20434;-63
2023/10/28 05:45:48;;;;;;;0.83;0.50;;;;;;;17.17;100.00;94720.50;5134837;27;20434;-63
2023/10/28 05:48:19;;;;;;;0.77;0.77;;;;;;;17.12;100.00;94718.00;5135410;27;20515;-63
2023/10/28 05:50:48;;;;;;;1.10;0.70;;;;;;;17.42;100.00;94719.53;5134609;27;20589;-63
2023/10/28 05:53:17;;;;;;;0.60;0.60;;;;;;;17.82;100.00;94724.44;5135534;27;20457;-63
2023/10/28 05:55:46;;;;;;;0.60;0.40;;;;;;;17.86;100.00;94730.72;5134975;27;20523;-62
2023/10/28 05:58:16;;;;;;;0.50;0.50;;;;;;;18.20;100.00;94741.13;5135772;27;20818;-62
2023/10/28 06:00:45;;;;;;;1.07;0.50;;;;;;;17.96;100.00;94690.09;5134974;27;20434;-63
2023/10/28 06:03:13;;;;;;;4.77;0.73;;;;;;;18.24;100.00;94736.69;5135025;27;20457;-63
2023/10/28 06:05:42;;;;;;;0.40;0.30;;;;;;;18.81;100.00;94742.84;5135833;27;20840;-63
2023/10/28 06:08:11;;;;;;;0.70;0.50;;;;;;;19.16;100.00;94750.47;5135035;27;20450;-63
2023/10/28 06:10:39;;;;;;;0.40;0.40;;;;;;;19.68;100.00;94750.56;5135134;27;20444;-63
2023/10/28 06:13:09;;;;;;;0.80;0.80;;;;;;;20.05;100.00;94750.09;5134743;27;20495;-63
2023/10/28 06:15:38;;;;;;;1.70;1.13;;;;;;;20.19;99.53;94747.00;5127208;27;20927;-61
2023/10/28 06:18:07;;;;;;;1.00;0.90;;;;;;;20.38;98.92;94743.69;5135733;27;20441;-61
2023/10/28 06:20:36;;;;;;;0.93;0.60;;;;;;;20.31;96.39;94755.06;5134984;27;20794;-60
2023/10/28 06:23:06;;;;;;;4.70;0.73;;;;;;;20.74;94.92;94756.97;5135523;27;20509;-59
2023/10/28 06:25:35;;;;;;;0.60;0.50;;;;;;;21.17;92.65;94756.13;5134763;27;20998;-59
2023/10/28 06:28:05;;;;;;;1.67;1.57;;;;;;;21.61;87.70;94759.41;5135036;27;20466;-60
2023/10/28 06:30:34;;;;;;;1.73;1.20;;;;;;;21.93;86.19;94760.94;5135189;27;20439;-58
2023/10/28 06:33:04;;;;;;;0.80;0.80;;;;;;;22.28;84.95;94761.66;5134612;27;20434;-59
2023/10/28 06:35:32;;;;;;;1.33;1.27;;;;;;;22.45;81.86;94752.31;5133340;27;20438;-59
2023/10/28 06:38:01;;;;;;;0.70;0.60;;;;;;;22.66;79.38;94758.16;5134958;27;21008;-58
2023/10/28 06:40:29;;;;;;;0.50;0.40;;;;;;;23.30;76.97;94766.19;5134555;27;20431;-59
2023/10/28 06:42:57;;;;;;;0.50;0.40;;;;;;;23.07;77.88;94772.75;5134412;27;20434;-59
2023/10/28 06:45:26;;;;;;;0.50;0.43;;;;;;;23.00;77.54;94769.91;5133911;27;20445;-59
2023/10/28 06:47:54;;;;;;;0.50;0.40;;;;;;;22.92;75.26;94770.97;5135097;27;20469;-60
2023/10/28 06:50:24;;;;;;;0.60;0.50;;;;;;;23.32;75.43;94772.03;5107756;27;20438;-59
2023/10/28 06:52:53;;;;;;;0.40;0.30;;;;;;;23.13;75.74;94776.72;5114991;27;20434;-58
2023/10/28 06:55:22;;;;;;;0.60;0.53;;;;;;;23.17;73.92;94772.91;5133495;27;20434;-60
2023/10/28 06:57:50;;;;;;;0.80;0.50;;;;;;;23.21;75.01;94776.47;5126970;27;20522;-59
2023/10/28 07:00:21;;;;;;;0.87;0.87;;;;;;;23.59;72.55;94780.94;5107329;27;20434;-60
2023/10/28 07:02:49;;;;;;;0.60;0.50;;;;;;;24.19;70.63;94792.63;5130200;27;20434;-59
2023/10/28 07:05:18;;;;;;;0.57;0.40;;;;;;;24.15;69.29;94793.72;5130945;27;20484;-60
2023/10/28 07:07:48;;;;;;;0.60;0.40;;;;;;;24.22;69.79;94791.91;5131243;27;20438;-61
2023/10/28 07:10:16;;;;;;;6.00;1.13;;;;;;;24.15;69.83;94791.03;5108654;27;20434;-60
2023/10/28 07:12:45;;;;;;;1.27;0.50;;;;;;;23.65;70.00;94784.91;5134348;27;20513;-60
2023/10/28 07:15:13;;;;;;;0.50;0.50;;;;;;;23.81;69.42;94785.50;5134195;27;20459;-60
2023/10/28 07:17:43;;;;;;;0.57;0.50;;;;;;;24.68;67.56;94794.34;5134005;27;21079;-59
2023/10/28 07:20:12;;;;;;;0.77;0.50;;;;;;;25.06;69.02;94785.88;5134164;27;20443;-59
2023/10/28 07:22:41;;;;;;;0.73;0.70;;;;;;;25.84;65.77;94782.63;5133493;27;20502;-60
2023/10/28 07:25:11;;;;;;;0.60;0.43;;;;;;;25.73;62.79;94789.91;5133775;27;20442;-60
2023/10/28 07:27:39;;;;;;;0.40;0.40;;;;;;;25.23;64.08;94798.81;5133423;27;20535;-59
2023/10/28 07:30:10;;;;;;;0.47;0.40;;;;;;;24.91;64.78;94798.53;5133550;27;20439;-58
2023/10/28 07:32:39;;;;;;;0.40;0.40;;;;;;;24.95;65.41;94796.59;5133179;27;20444;-59
2023/10/28 07:35:09;;;;;;;0.50;0.40;;;;;;;25.08;65.38;94791.69;5133535;27;20470;-59
2023/10/28 07:37:38;;;;;;;0.40;0.30;;;;;;;24.66;65.72;94783.91;5133492;27;20552;-58
2023/10/28 07:40:08;;;;;;;0.40;0.30;;;;;;;24.86;65.81;94790.72;5134076;27;20438;-59
2023/10/28 07:42:37;;;;;;;0.40;0.30;;;;;;;24.35;66.16;94800.56;5132751;27;20438;-59
2023/10/28 07:45:06;;;;;;;0.40;0.40;;;;;;;23.81;67.66;94804.47;5133176;27;20438;-59
2023/10/28 07:47:35;;;;;;;0.60;0.37;;;;;;;23.69;69.42;94803.88;5133090;27;20945;-58
2023/10/28 07:50:04;;;;;;;0.40;0.30;;;;;;;23.29;69.82;94807.13;5133284;27;20438;-57
2023/10/28 07:52:33;;;;;;;0.70;0.37;;;;;;;23.03;70.29;94804.34;5132858;27;20435;-57
2023/10/28 07:55:04;;;;;;;0.50;0.40;;;;;;;23.46;71.52;94798.53;5133491;27;20434;-58
2023/10/28 07:57:32;;;;;;;0.50;0.40;;;;;;;23.74;71.08;94807.06;5132764;27;20554;-59
2023/10/28 08:00:04;;;;;;;0.60;0.57;;;;;;;24.39;68.85;94804.09;5133121;27;20443;-59
2023/10/28 08:02:33;;;;;;;0.70;0.37;;;;;;;24.56;65.32;94800.81;5107007;27;20442;-59
2023/10/28 08:05:01;;;;;;;0.40;0.30;;;;;;;24.83;65.58;94807.72;5131623;27;20846;-59
2023/10/28 08:07:30;;;;;;;0.50;0.30;;;;;;;25.20;63.16;94805.75;5133163;27;20430;-60
2023/10/28 08:09:58;;;;;;;0.60;0.40;;;;;;;24.33;64.02;94803.66;5133017;27;20972;-60
2023/10/28 08:12:27;;;;;;;0.50;0.40;;;;;;;24.90;65.25;94818.63;5133152;27;20439;-59
2023/10/28 08:14:55;;;;;;;3.43;0.77;;;;;;;24.79;63.76;94814.25;5132335;27;20434;-60
2023/10/28 08:17:25;;;;;;;0.50;0.30;;;;;;;24.89;63.51;94795.41;5132715;27;20522;-59
2023/10/28 08:19:56;;;;;;;0.47;0.30;;;;;;;26.04;60.01;94812.22;5133094;27;20446;-61
2023/10/28 08:22:25;;;;;;;0.40;0.30;;;;;;;27.08;57.93;94813.06;5133002;27;20506;-61
2023/10/28 08:24:54;;;;;;;0.90;0.40;;;;;;;26.20;58.01;94802.66;5132464;27;20435;-60
2023/10/28 08:27:22;;;;;;;4.10;0.67;;;;;;;25.85;58.63;94805.91;5132562;27;20466;-60
2023/10/28 08:29:51;;;;;;;0.40;0.30;;;;;;;26.78;56.52;94790.84;5132549;27;20434;-60
2023/10/28 08:32:19;;;;;;;8.03;2.23;;;;;;;26.97;55.90;94807.59;5132426;27;20468;-61
2023/10/28 08:34:49;;;;;;;0.40;0.30;;;;;;;27.56;55.03;94814.31;5132010;27;20430;-60
2023/10/28 08:37:18;;;;;;;0.80;0.40;;;;;;;27.94;54.56;94801.03;5131722;27;20469;-59
2023/10/28 08:39:47;;;;;;;4.93;0.70;;;;;;;27.94;52.45;94810.00;5106373;27;20438;-59
2023/10/28 08:42:17;;;;;;;0.40;0.40;;;;;;;28.50;51.56;94805.59;5132683;27;20442;-59
2023/10/28 08:44:47;;;;;;;0.77;0.70;;;;;;;28.50;51.61;94800.13;5132748;27;20506;-59
2023/10/28 08:47:18;;;;;;;0.60;0.30;;;;;;;28.57;51.88;94797.38;5132526;27;20438;-58
2023/10/28 08:49:51;;;;;;;0.40;0.30;;;;;;;28.62;50.69;94788.81;5132924;27;20431;-59
2023/10/28 08:52:21;;;;;;;0.40;0.30;;;;;;;28.85;50.14;94797.25;5132173;27;20927;-59
2023/10/28 08:54:50;;;;;;;0.40;0.30;;;;;;;28.69;51.59;94775.16;5132972;27;20438;-59
2023/10/28 08:57:21;;;;;;;0.40;0.30;;;;;;;28.76;51.06;94788.75;5131554;27;20474;-59
2023/10/28 08:59:50;;;;;;;4.90;0.90;;;;;;;29.44;49.46;94741.53;5132652;28;20548;-58
2023/10/28 09:02:21;;;;;;;0.40;0.40;;;;;;;30.32;48.57;94785.56;5132151;28;20491;-58
2023/10/28 09:04:52;;;;;;;3.90;0.67;;;;;;;30.00;48.65;94775.75;5132307;28;20449;-58
2023/10/28 09:07:20;;;;;;;0.40;0.40;;;;;;;29.04;49.69;94785.06;5131816;28;20438;-58
2023/10/28 09:09:58;;;;;;;0.60;0.30;;;;;;;28.64;49.69;94770.13;5132528;28;20924;-58
2023/10/28 09:12:27;;;;;;;0.40;0.40;;;;;;;29.20;49.92;94767.06;5131789;28;20431;-58
2023/10/28 09:14:55;;;;;;;0.40;0.30;;;;;;;30.01;47.61;94766.34;5132044;28;20441;-58
2023/10/28 09:17:24;;;;;;;0.40;0.40;;;;;;;30.12;48.45;94750.63;5132435;28;20501;-58
2023/10/28 09:19:53;;;;;;;0.40;0.30;;;;;;;28.81;42.98;94720.91;5132024;28;21062;-57
2023/10/28 09:22:22;;;;;;;0.30;0.20;;;;;;;30.34;43.37;94750.38;5132285;28;20434;-58
2023/10/28 09:24:52;;;;;;;0.30;0.30;;;;;;;30.61;40.48;94757.47;5132216;28;20462;-58
2023/10/28 09:27:21;;;;;;;0.87;0.87;;;;;;;31.55;39.87;94744.81;5131930;28;20466;-59
2023/10/28 09:29:49;;;;;;;0.30;0.20;;;;;;;31.13;37.52;94759.91;5131869;28;20549;-58
2023/10/28 09:32:18;;;;;;;0.37;0.27;;;;;;;30.95;38.11;94762.13;5132262;28;20955;-58
2023/10/28 09:34:47;;;;;;;0.30;0.30;;;;;;;31.53;37.89;94758.91;5132304;28;20442;-58
2023/10/28 09:37:16;;;;;;;0.40;0.30;;;;;;;31.40;36.30;94775.13;5131599;28;20554;-58
2023/10/28 09:39:47;;;;;;;0.30;0.20;;;;;;;30.55;37.54;94772.03;5131677;28;20438;-58
2023/10/28 09:42:16;;;;;;;0.30;0.20;;;;;;;31.35;36.80;94767.38;5131573;28;20533;-59
2023/10/28 09:44:45;;;;;;;0.37;0.30;;;;;;;30.92;36.95;94755.53;5132290;28;20445;-59
2023/10/28 09:47:22;;;;;;;1.90;0.30;;;;;;;31.03;36.04;94769.84;5131891;28;20871;-58
2023/10/28 09:49:59;;;;;;;0.60;0.40;;;;;;;31.30;36.27;94759.66;5131854;28;20498;-59
2023/10/28 09:52:31;;;;;;;0.30;0.20;;;;;;;31.94;35.48;94747.63;5131674;28;20814;-59
2023/10/28 09:55:05;;;;;;;0.30;0.20;;;;;;;31.99;35.69;94741.69;5131764;28;20818;-58
2023/10/28 09:57:34;;;;;;;0.53;0.53;;;;;;;31.19;35.36;94739.09;5131679;28;20520;-59
2023/10/28 10:00:09;;;;;;;0.40;0.30;;;;;;;31.53;35.65;94749.91;5132164;28;20434;-59
2023/10/28 10:02:49;;;;;;;0.40;0.40;;;;;;;31.46;34.55;94708.94;5107511;28;20772;-59
2023/10/28 10:05:26;;;;;;;2.80;0.40;;;;;;;32.51;34.24;94739.91;5131485;28;20434;-60
2023/10/28 10:07:56;;;;;;;0.30;0.20;;;;;;;32.61;33.31;94746.38;5111439;27;20800;-59
2023/10/28 10:10:24;;;;;;;0.33;0.30;;;;;;;33.91;32.33;94750.81;5132253;27;20815;-60
2023/10/28 10:13:02;;;;;;;5.10;0.43;;;;;;;33.85;32.25;94742.31;5135752;27;20440;-60
2023/10/28 10:15:34;;;;;;;0.30;0.20;;;;;;;33.80;31.78;94709.84;5108414;27;20444;-60
2023/10/28 10:18:10;;;;;;;0.30;0.23;;;;;;;33.92;31.98;94721.34;5135037;27;20465;-59
2023/10/28 10:20:44;;;;;;;0.40;0.30;;;;;;;32.94;32.36;94717.03;5135514;27;20429;-59
2023/10/28 10:23:15;;;;;;;0.30;0.20;;;;;;;33.02;32.46;94721.91;5134734;27;20935;-59
2023/10/28 10:25:44;;;;;;;0.30;0.20;;;;;;;33.95;32.32;94725.97;5134934;27;21028;-59
2023/10/28 10:28:15;;;;;;;0.30;0.20;;;;;;;34.55;31.79;94705.84;5135020;27;20466;-59
2023/10/28 10:30:43;;;;;;;0.40;0.30;;;;;;;34.68;31.95;94720.41;5135586;27;20434;-60
2023/10/28 10:33:12;;;;;;;0.33;0.30;;;;;;;34.56;30.02;94704.63;5134671;27;20888;-60
2023/10/28 10:35:49;;;;;;;0.30;0.30;;;;;;;35.43;29.71;94697.59;5135097;27;20444;-60
2023/10/28 10:38:28;;;;;;;0.40;0.30;;;;;;;34.99;29.70;94701.38;5135129;27;20560;-60
2023/10/28 10:40:59;;;;;;;0.90;0.40;;;;;;;34.38;30.86;94693.34;5134484;27;21232;-60
2023/10/28 10:43:31;;;;;;;0.30;0.20;;;;;;;32.83;30.86;94711.78;5134740;27;20438;-60
2023/10/28 10:45:59;;;;;;;0.30;0.20;;;;;;;31.88;32.17;94702.72;5134892;27;20441;-59
2023/10/28 10:48:28;;;;;;;0.30;0.20;;;;;;;32.24;32.54;94709.09;5134789;27;20442;-59
2023/10/28 10:50:57;;;;;;;0.40;0.27;;;;;;;32.56;33.02;94709.22;5134986;27;20781;-60
2023/10/28 10:53:26;;;;;;;0.40;0.30;;;;;;;31.30;32.89;94713.09;5135075;27;20460;-59
2023/10/28 10:55:55;;;;;;;0.40;0.20;;;;;;;31.10;33.35;94709.50;5134399;27;20997;-58
2023/10/28 10:58:23;;;;;;;0.40;0.30;;;;;;;30.28;34.98;94714.53;5134082;27;20466;-58
2023/10/28 11:00:54;;;;;;;0.80;0.40;;;;;;;31.33;33.61;94704.06;5127484;27;20952;-58
2023/10/28 11:03:24;;;;;;;0.30;0.20;;;;;;;33.06;32.91;94703.44;5128513;27;21007;-59
2023/10/28 11:05:53;;;;;;;0.30;0.23;;;;;;;32.54;32.04;94711.63;5134154;27;20429;-59
2023/10/28 11:08:21;;;;;;;1.43;0.93;;;;;;;32.48;32.19;94713.31;5134204;27;21016;-58
2023/10/28 11:10:51;;;;;;;0.40;0.30;;;;;;;32.69;32.57;94711.31;5134677;27;20524;-58
2023/10/28 11:13:20;;;;;;;0.40;0.40;;;;;;;31.52;33.15;94701.81;5133592;27;20495;-59
2023/10/28 11:15:51;;;;;;;0.40;0.30;;;;;;;32.37;32.53;94703.72;5133911;27;20939;-60
2023/10/28 11:18:19;;;;;;;0.40;0.30;;;;;;;33.18;32.46;94702.75;5133948;27;20470;-59
2023/10/28 11:20:49;;;;;;;0.40;0.30;;;;;;;32.69;29.89;94653.69;5133715;27;20430;-58
2023/10/28 11:23:18;;;;;;;0.30;0.30;;;;;;;31.79;31.62;94688.78;5133355;27;20434;-59
2023/10/28 11:25:49;;;;;;;0.30;0.20;;;;;;;32.52;33.55;94692.06;5122372;27;20435;-57
2023/10/28 11:28:19;;;;;;;0.30;0.30;;;;;;;32.77;31.51;94701.72;5132052;27;20512;-58
2023/10/28 11:30:52;;;;;;;0.40;0.20;;;;;;;31.97;32.16;94708.41;5133717;27;20438;-56
2023/10/28 11:33:20;;;;;;;0.70;0.70;;;;;;;31.85;32.02;94698.84;5107838;27;20502;-57
2023/10/28 11:35:51;;;;;;;0.30;0.20;;;;;;;32.05;32.18;94690.69;5133835;27;20558;-57
2023/10/28 11:38:19;;;;;;;0.50;0.40;;;;;;;32.13;33.01;94688.56;5133243;27;20731;-57